Relevés horaires Laegern (Suisse)


Relevés horaires à Laegern - Lundi 15 Févr. 2021
Heure UTC1 Température [°C] Vent [km/h] Hum. [%] Pres.4 [hPa] Visi. [Km] Nébu. [octa] Préc.5 [mm] Cond.
2m. Res. Ros. Dir.2 Vit. Moy. Raf.3
23:00 0.8 0.8 -0.8 SSO 0.0 -- 53.7 89 850(-0.4/3h) -- -- -- --
22:00 0.3 0.3 -0.5 SSO 0.0 -- 64.8 94 850(-0.2/3h) -- -- -- --
21:00 0.2 0.2 -1.2 SSO 0.0 -- 61.1 90 850(-0.2/3h) -- -- -- --
20:00 1.3 1.3 -4.1 SSO 0.0 -- 61.1 67 850(-0.9/3h) -- -- -- --
19:00 1.2 1.2 -4.4 SSO 0.0 -- 55.6 66 850(-1.1/3h) -- -- -- --
18:00 0.6 0.6 -4.4 SSO 0.0 -- 50.0 69 850(-1.0/3h) -- -- -- --
17:00 0.7 0.7 -4.7 SSO 0.0 -- 44.4 67 850(-0.6/3h) -- -- -- --
16:00 0.6 0.6 -4.8 SSO 0.0 -- 48.2 67 850(-0.6/3h) -- -- -- --
15:00 0.6 0.6 -5.2 SSO 0.0 -- 50.0 65 850(-1.2/3h) -- -- -- --
14:00 0.1 0.1 -5.3 SSO 0.0 -- 44.4 67 850(-1.5/3h) -- -- -- --
13:00 -1.0 -1.0 -5.4 SSO 0.0 -- 46.3 72 850(-1.3/3h) -- -- -- --
12:00 -1.7 -1.7 -5.5 SSO 0.0 -- 40.7 75 850(-1.0/3h) -- -- -- --
11:00 -2.4 -2.4 -5.5 S 0.0 -- 40.7 79 850(-0.3/3h) -- -- -- --
10:00 -3.5 -3.5 -5.8 SSO 0.0 -- 38.9 84 850(0.4/3h) -- -- -- --
09:00 -3.6 -3.6 -6.2 SSO 0.0 -- 37.0 82 850(0.4/3h) -- -- -- --
08:00 -3.8 -3.8 -6.7 S 0.0 -- 33.3 80 850(0.1/3h) -- -- -- --
07:00 -4.5 -4.5 -7.4 S 0.0 -- 33.3 80 850(-0.4/3h) -- -- -- --
06:00 -5.4 -5.4 -7.1 S 0.0 -- 27.8 88 850(-0.3/3h) -- -- -- --
05:00 -5.4 -5.4 -7.7 S 0.0 -- 27.8 84 850(-0.3/3h) -- -- -- --
04:00 -5.5 -5.5 -7.8 S 0.0 -- 25.9 84 850(-0.9/3h) -- -- -- --
03:00 -5.5 -5.5 -8.4 SSO 0.0 -- 18.5 80 850(-1.1/3h) -- -- -- --
02:00 -6.2 -6.2 -7.0 S 0.0 -- 18.5 94 850(-1.0/3h) -- -- -- --
01:00 -6.0 -6.0 -7.1 S 0.0 -- 18.5 92 850(-0.5/3h) -- -- -- --
00:00 -4.9 -4.9 -10.5 S 0.0 -- 25.9 65 850(0.1/3h) -- -- -- --

1 Coordinated Universal Time. Actuellement il est 17:00 locale et 15:00 UTC.

2 Le vent souffle depuis la direction indiquée vers la direction oposée.

3 Les rafales max. sont disponible 40 min après l'heure du relevé.

4 Pour les stations d'altitude (plus de 600m) le géopotentiel du niveau le plus proche de la pression obligatoire est indiqué.

5 Les stations disposant d'un diffuseur peuvent indiquer "trace". Cela signifie que des précipitations ont touchés le sol mais que la quantité est inférieure à 0.1 mm.

Copyright

Les données affichées sur cette page sont la propriété exclusive de Météo Suisse.

Récapitulatif de la journée
Température [°C] Vent [km/h] Ensoleillement4 [h] Precipitations totale5 [mm] Pression [Hpa]
Min1 Max.2 Moy.3 Max. Min Max.
-6.3 0.8 0 64.8 0 h 0 min 0 850.0 850.0

1 Température minimale relevée entre 18:00 UTC la veille et 18:00 UTC le jour donné.

2 Température maximale relevée entre 06:00 UTC le jour donné et 06:00 UTC le lendemain.

3 Vent moyen de la journée basé sur les relevés horaires.

4 Ensoleillement en heures relevé entre 06:00 UTC la veille et 06:00 UTC le jour donné.

5 Précipitations totales tombées entre 06:00 UTC la jour donné et 06:00 UTC le lendemain.

Graphiques horaires